Time;durP1;ratioP1;P1;durP2;ratioP2;P2;SDS_P1;SDS_P2;PMS_P1;PMS_P2;Temp;Humidity;BMP_temperature;BMP_pressure;BME280_temperature;BME280_humidity;BME280_pressure;Samples;Min_cycle;Max_cycle;Signal;HPM_P1;HPM_P2
2023/05/12 00:01:13;;;;;;;46.97;25.88;;;12.20;99.90;;;;;;5078984;28;20260;-80
2023/05/12 00:03:39;;;;;;;53.28;26.85;;;12.20;99.90;;;;;;5095189;28;20184;-80
2023/05/12 00:06:05;;;;;;;53.47;26.42;;;12.20;99.90;;;;;;5093785;28;20178;-80
2023/05/12 00:08:31;;;;;;;53.72;27.20;;;12.20;99.90;;;;;;5078280;28;20189;-80
2023/05/12 00:10:57;;;;;;;48.67;25.48;;;12.10;99.90;;;;;;5095272;28;20242;-80
2023/05/12 00:13:23;;;;;;;58.08;26.13;;;12.20;99.90;;;;;;5093994;28;20220;-80
2023/05/12 00:15:50;;;;;;;52.42;25.42;;;12.20;99.90;;;;;;5094774;28;20649;-81
2023/05/12 00:18:16;;;;;;;48.67;25.30;;;12.20;99.90;;;;;;5112623;28;20177;-80
2023/05/12 00:20:42;;;;;;;47.13;23.52;;;12.20;99.90;;;;;;5091403;28;20211;-82
2023/05/12 00:23:08;;;;;;;49.90;23.75;;;12.20;99.90;;;;;;5092997;28;20205;-80
2023/05/12 00:25:34;;;;;;;48.53;22.83;;;12.20;99.90;;;;;;5078346;28;20180;-81
2023/05/12 00:27:59;;;;;;;42.88;22.85;;;12.20;99.90;;;;;;5094070;28;20185;-80
2023/05/12 00:30:25;;;;;;;49.42;22.33;;;12.20;99.90;;;;;;5078217;28;20177;-80
2023/05/12 00:32:51;;;;;;;46.53;22.25;;;12.20;99.90;;;;;;5077340;28;20572;-81
2023/05/12 00:35:17;;;;;;;41.00;20.98;;;12.20;99.90;;;;;;5061116;28;20209;-80
2023/05/12 00:37:43;;;;;;;45.70;22.17;;;12.20;99.90;;;;;;5074123;28;20714;-81
2023/05/12 00:40:09;;;;;;;44.75;22.33;;;12.20;99.90;;;;;;5060430;28;20193;-81
2023/05/12 00:42:35;;;;;;;53.22;22.50;;;12.20;99.90;;;;;;5063203;28;20177;-80
2023/05/12 00:45:01;;;;;;;44.42;21.48;;;12.20;99.90;;;;;;5112505;28;20212;-80
2023/05/12 00:47:27;;;;;;;45.45;22.80;;;12.20;99.90;;;;;;5112990;28;20281;-80
2023/05/12 00:49:53;;;;;;;44.25;22.58;;;12.20;99.90;;;;;;5075932;28;20231;-81
2023/05/12 00:52:19;;;;;;;42.58;22.67;;;12.20;99.90;;;;;;5092687;28;20218;-80
2023/05/12 00:54:46;;;;;;;54.15;24.55;;;12.30;99.90;;;;;;5072909;28;20600;-80
2023/05/12 00:57:13;;;;;;;46.17;23.60;;;12.30;99.90;;;;;;5064663;28;20572;-80
2023/05/12 00:59:39;;;;;;;52.70;23.90;;;12.30;99.90;;;;;;5091754;28;20182;-81
2023/05/12 01:02:06;;;;;;;52.05;24.48;;;12.30;99.90;;;;;;5078720;28;20239;-81
2023/05/12 01:04:33;;;;;;;49.33;24.63;;;12.30;99.90;;;;;;5092859;28;20181;-80
2023/05/12 01:07:08;;;;;;;51.88;24.75;;;12.30;99.90;;;;;;5081708;28;20279;-80
2023/05/12 01:09:35;;;;;;;53.47;24.30;;;12.40;99.90;;;;;;5081769;28;20185;-80
2023/05/12 01:12:01;;;;;;;48.10;24.70;;;12.40;99.90;;;;;;5096977;28;20181;-83
2023/05/12 01:14:28;;;;;;;48.70;25.02;;;12.40;99.90;;;;;;5083008;28;20190;-80
2023/05/12 01:16:58;;;;;;;45.17;23.27;;;12.40;99.90;;;;;;5113565;28;20200;-80
2023/05/12 01:19:33;;;;;;;52.08;23.65;;;12.40;99.90;;;;;;5097094;28;20188;-81
2023/05/12 01:21:59;;;;;;;48.55;24.15;;;12.40;99.90;;;;;;5093273;28;20212;-81
2023/05/12 01:24:29;;;;;;;48.53;23.77;;;12.40;99.90;;;;;;5101654;28;20310;-80
2023/05/12 01:26:55;;;;;;;48.38;22.63;;;12.40;99.90;;;;;;5097995;28;20177;-80
2023/05/12 01:29:22;;;;;;;43.22;22.52;;;12.40;99.90;;;;;;5084032;28;20194;-81
2023/05/12 01:31:49;;;;;;;46.60;23.25;;;12.50;99.90;;;;;;5047178;28;20193;-80
2023/05/12 01:34:17;;;;;;;42.25;22.42;;;12.40;99.90;;;;;;5089909;28;20185;-80
2023/05/12 01:36:44;;;;;;;41.40;23.45;;;12.50;99.90;;;;;;5097626;28;20230;-81
2023/05/12 01:39:11;;;;;;;45.25;23.35;;;12.50;99.90;;;;;;5077548;28;20190;-80
2023/05/12 01:41:38;;;;;;;51.67;23.45;;;12.50;99.90;;;;;;5095573;28;20177;-81
2023/05/12 01:44:04;;;;;;;53.05;24.45;;;12.50;99.90;;;;;;5078272;28;20669;-81
2023/05/12 01:46:30;;;;;;;48.38;24.58;;;12.50;99.90;;;;;;5097111;28;20227;-81
2023/05/12 01:48:58;;;;;;;50.28;25.52;;;12.50;99.90;;;;;;5077465;28;20239;-81
2023/05/12 01:51:25;;;;;;;48.83;25.13;;;12.50;99.90;;;;;;5061227;28;20197;-80
2023/05/12 01:53:52;;;;;;;52.03;25.83;;;12.50;99.90;;;;;;5090710;28;20232;-80
2023/05/12 01:56:18;;;;;;;57.03;25.92;;;12.60;99.90;;;;;;5080689;28;20646;-80
2023/05/12 01:58:45;;;;;;;51.42;26.10;;;12.50;99.90;;;;;;5093997;28;20186;-80
2023/05/12 02:01:11;;;;;;;54.92;26.77;;;12.60;99.90;;;;;;5094060;28;20185;-80
2023/05/12 02:03:37;;;;;;;52.58;26.42;;;12.60;99.90;;;;;;5084348;28;20204;-81
2023/05/12 02:06:08;;;;;;;56.05;26.30;;;12.60;99.90;;;;;;5080538;28;20194;-80
2023/05/12 02:08:34;;;;;;;55.30;27.20;;;12.60;99.90;;;;;;5076550;28;20674;-80
2023/05/12 02:11:05;;;;;;;60.97;27.55;;;12.60;99.90;;;;;;5108728;28;20668;-80
2023/05/12 02:13:31;;;;;;;56.72;28.20;;;12.60;99.90;;;;;;5083151;28;20222;-81
2023/05/12 02:15:56;;;;;;;58.47;26.58;;;12.60;99.90;;;;;;5095115;28;20178;-80
2023/05/12 02:18:22;;;;;;;51.85;26.60;;;12.50;99.90;;;;;;5065270;28;20238;-80
2023/05/12 02:20:49;;;;;;;57.70;27.65;;;12.60;99.90;;;;;;5091361;28;20766;-81
2023/05/12 02:23:15;;;;;;;55.17;27.25;;;12.50;99.90;;;;;;5111281;28;20276;-81
2023/05/12 02:25:40;;;;;;;57.85;27.15;;;12.60;99.90;;;;;;5075536;28;20226;-81
2023/05/12 02:28:10;;;;;;;58.50;26.67;;;12.50;99.90;;;;;;5069884;28;20183;-81
2023/05/12 02:30:37;;;;;;;59.28;27.38;;;12.60;99.90;;;;;;5056076;28;20248;-81
2023/05/12 02:33:04;;;;;;;56.80;27.42;;;12.60;99.90;;;;;;5072341;28;20206;-81
2023/05/12 02:35:30;;;;;;;65.68;28.02;;;12.60;99.90;;;;;;5072971;28;20327;-81
2023/05/12 02:37:56;;;;;;;57.95;28.27;;;12.60;99.90;;;;;;5053642;28;20187;-81
2023/05/12 02:40:22;;;;;;;61.72;28.77;;;12.70;99.90;;;;;;5052735;28;20171;-80
2023/05/12 02:42:48;;;;;;;63.67;29.00;;;12.60;99.90;;;;;;5059536;28;20647;-81
2023/05/12 02:45:14;;;;;;;64.28;27.92;;;12.60;99.90;;;;;;5036345;28;20171;-81
2023/05/12 02:47:40;;;;;;;59.70;27.27;;;12.70;99.90;;;;;;5058599;28;20231;-80
2023/05/12 02:50:07;;;;;;;64.65;28.23;;;12.70;99.90;;;;;;5052007;28;20255;-81
2023/05/12 02:52:33;;;;;;;64.75;28.60;;;12.60;99.90;;;;;;5053274;28;20783;-80
2023/05/12 02:55:00;;;;;;;56.65;27.88;;;12.70;99.90;;;;;;5050994;28;20632;-80
2023/05/12 02:57:31;;;;;;;57.05;27.77;;;12.70;99.90;;;;;;5069520;28;20176;-84
2023/05/12 02:59:57;;;;;;;62.10;28.38;;;12.60;99.90;;;;;;5052600;28;20183;-81
2023/05/12 03:02:23;;;;;;;61.53;28.48;;;12.60;99.90;;;;;;5051706;28;20624;-80
2023/05/12 03:04:49;;;;;;;64.13;29.25;;;12.60;99.90;;;;;;5042487;28;20191;-80
2023/05/12 03:07:15;;;;;;;56.78;28.08;;;12.60;99.90;;;;;;5056081;28;20178;-80
2023/05/12 03:09:44;;;;;;;68.05;28.35;;;12.70;99.90;;;;;;5071556;28;20217;-81
2023/05/12 03:12:10;;;;;;;56.83;28.80;;;12.70;99.90;;;;;;5054433;28;20264;-81
2023/05/12 03:14:36;;;;;;;57.55;27.67;;;12.60;99.90;;;;;;5054247;28;20581;-80
2023/05/12 03:17:01;;;;;;;68.90;27.98;;;12.60;99.90;;;;;;5054738;28;20701;-80
2023/05/12 03:19:27;;;;;;;59.08;27.67;;;12.60;99.90;;;;;;5051942;28;20266;-81
2023/05/12 03:21:53;;;;;;;54.45;27.42;;;12.60;99.90;;;;;;5052499;28;20556;-80
2023/05/12 03:24:19;;;;;;;64.05;27.35;;;12.60;99.90;;;;;;5062696;28;20221;-81
2023/05/12 03:26:45;;;;;;;53.88;26.13;;;12.60;99.90;;;;;;5095639;28;20192;-81
2023/05/12 03:29:11;;;;;;;60.03;27.58;;;12.60;99.90;;;;;;5078403;28;20181;-81
2023/05/12 03:31:37;;;;;;;57.40;26.92;;;12.60;99.90;;;;;;5111327;28;20185;-81
2023/05/12 03:34:03;;;;;;;51.25;27.10;;;12.60;99.90;;;;;;5065022;28;20262;-80
2023/05/12 03:36:29;;;;;;;57.97;27.50;;;12.60;99.90;;;;;;5075312;28;20276;-81
2023/05/12 03:38:55;;;;;;;66.72;26.85;;;12.60;99.90;;;;;;5080563;28;20185;-80
2023/05/12 03:41:21;;;;;;;56.90;25.70;;;12.60;99.90;;;;;;5075376;28;20189;-81
2023/05/12 03:43:47;;;;;;;58.15;26.67;;;12.60;99.90;;;;;;5087525;28;20177;-80
2023/05/12 03:46:13;;;;;;;58.92;26.77;;;12.50;99.90;;;;;;5095064;28;20222;-80
2023/05/12 03:48:39;;;;;;;60.97;26.83;;;12.60;99.90;;;;;;5095883;28;20190;-81
2023/05/12 03:51:05;;;;;;;63.65;26.60;;;12.60;99.90;;;;;;5095360;28;20173;-81
2023/05/12 03:53:31;;;;;;;57.72;27.30;;;12.60;99.90;;;;;;5113432;28;20212;-80
2023/05/12 03:55:57;;;;;;;61.80;27.75;;;12.60;99.90;;;;;;5095252;28;20188;-80
2023/05/12 03:58:23;;;;;;;51.35;26.38;;;12.60;99.90;;;;;;5094139;28;20556;-81
2023/05/12 04:00:49;;;;;;;65.03;27.50;;;12.60;99.90;;;;;;5094993;28;20541;-81
2023/05/12 04:03:16;;;;;;;72.35;28.33;;;12.60;99.90;;;;;;5089414;28;20209;-81
2023/05/12 04:05:45;;;;;;;58.35;26.42;;;12.60;99.90;;;;;;5079737;28;20246;-81
2023/05/12 04:08:11;;;;;;;61.83;26.98;;;12.60;99.90;;;;;;5113270;28;20254;-81
2023/05/12 04:10:40;;;;;;;58.30;27.00;;;12.60;99.90;;;;;;5093727;28;20185;-81
2023/05/12 04:13:07;;;;;;;63.55;28.70;;;12.60;99.90;;;;;;5113000;28;20244;-81
2023/05/12 04:15:36;;;;;;;52.67;26.80;;;12.60;99.90;;;;;;5094578;28;20318;-81
2023/05/12 04:18:02;;;;;;;67.30;28.02;;;12.60;99.90;;;;;;5094738;28;20318;-80
2023/05/12 04:20:28;;;;;;;58.45;27.35;;;12.60;99.90;;;;;;5092891;28;20193;-83
2023/05/12 04:22:54;;;;;;;58.72;29.17;;;12.60;99.90;;;;;;5089918;28;20193;-81
2023/05/12 04:25:20;;;;;;;55.58;27.35;;;12.60;99.90;;;;;;5058714;28;20526;-81
2023/05/12 04:27:46;;;;;;;70.95;27.75;;;12.60;99.90;;;;;;5077850;28;20335;-81
2023/05/12 04:30:11;;;;;;;61.10;27.25;;;12.60;99.90;;;;;;5065166;28;20188;-81
2023/05/12 04:32:40;;;;;;;68.95;28.63;;;12.70;99.90;;;;;;5065679;28;20220;-81
2023/05/12 04:35:06;;;;;;;61.60;28.55;;;12.60;99.90;;;;;;5061976;28;20174;-81
2023/05/12 04:37:33;;;;;;;66.43;29.85;;;12.70;99.90;;;;;;5078732;28;20298;-80
2023/05/12 04:39:59;;;;;;;62.80;29.00;;;12.70;99.90;;;;;;5066125;28;20181;-81
2023/05/12 04:42:25;;;;;;;64.55;29.67;;;12.70;99.90;;;;;;5073457;28;20192;-81
2023/05/12 04:44:51;;;;;;;65.65;29.40;;;12.70;99.90;;;;;;5078322;28;20181;-81
2023/05/12 04:47:17;;;;;;;67.30;29.38;;;12.70;99.90;;;;;;5076357;28;20177;-81
2023/05/12 04:49:44;;;;;;;67.60;30.65;;;12.70;99.90;;;;;;5098638;28;20637;-81
2023/05/12 04:52:10;;;;;;;66.55;29.08;;;12.70;99.90;;;;;;5064870;28;20212;-81
2023/05/12 04:54:37;;;;;;;61.28;29.45;;;12.70;99.90;;;;;;5098617;28;20213;-80
2023/05/12 04:57:04;;;;;;;68.63;30.05;;;12.70;99.90;;;;;;5080991;28;20189;-80
2023/05/12 04:59:30;;;;;;;80.72;31.40;;;12.80;99.90;;;;;;5081668;28;20203;-80
2023/05/12 05:01:56;;;;;;;70.65;30.48;;;12.80;99.90;;;;;;5085930;28;20193;-83
2023/05/12 05:04:22;;;;;;;70.22;31.50;;;12.80;99.90;;;;;;5103159;28;20725;-81
2023/05/12 05:06:49;;;;;;;68.25;30.50;;;12.80;99.90;;;;;;5064786;28;20213;-80
2023/05/12 05:09:15;;;;;;;63.28;31.25;;;12.80;99.90;;;;;;5081295;28;20215;-80
2023/05/12 05:11:40;;;;;;;66.53;30.75;;;12.80;99.90;;;;;;5115322;28;20182;-80
2023/05/12 05:14:06;;;;;;;62.33;30.40;;;12.90;99.90;;;;;;5079031;28;20617;-80
2023/05/12 05:16:34;;;;;;;68.40;31.27;;;12.90;99.90;;;;;;5081093;28;20691;-80
2023/05/12 05:19:00;;;;;;;64.95;30.17;;;12.90;99.90;;;;;;5081644;28;20192;-80
2023/05/12 05:21:26;;;;;;;65.93;31.40;;;12.90;99.90;;;;;;5111155;28;20204;-80
2023/05/12 05:23:52;;;;;;;58.45;31.55;;;13.00;99.90;;;;;;5095863;28;20263;-80
2023/05/12 05:26:18;;;;;;;69.97;32.30;;;12.90;99.90;;;;;;5080881;28;20311;-80
2023/05/12 05:28:43;;;;;;;62.75;31.02;;;13.00;99.90;;;;;;5083597;28;20197;-81
2023/05/12 05:31:15;;;;;;;67.38;32.25;;;13.00;99.90;;;;;;5077637;28;20189;-80
2023/05/12 05:33:42;;;;;;;63.20;33.38;;;13.00;99.90;;;;;;5077736;28;20614;-81
2023/05/12 05:36:08;;;;;;;69.97;32.80;;;13.00;99.90;;;;;;5082423;28;20165;-80
2023/05/12 05:38:33;;;;;;;61.47;31.23;;;13.00;99.90;;;;;;5107717;28;20201;-80
2023/05/12 05:40:59;;;;;;;69.53;33.28;;;13.10;99.90;;;;;;5079752;28;20565;-80
2023/05/12 05:43:26;;;;;;;66.55;33.65;;;13.10;99.90;;;;;;5097118;28;20185;-81
2023/05/12 05:45:54;;;;;;;72.10;33.67;;;13.10;99.90;;;;;;5097578;28;20327;-81
2023/05/12 05:48:20;;;;;;;74.05;33.42;;;13.10;99.90;;;;;;5080486;28;20212;-81
2023/05/12 05:50:46;;;;;;;72.85;35.05;;;13.10;99.90;;;;;;5097763;28;20568;-81
2023/05/12 05:53:12;;;;;;;68.50;34.50;;;13.20;99.90;;;;;;5085635;28;20216;-81
2023/05/12 05:55:38;;;;;;;76.20;34.22;;;13.10;99.90;;;;;;5089347;28;20207;-81
2023/05/12 05:58:05;;;;;;;73.28;35.10;;;13.20;99.90;;;;;;5105255;28;20193;-80
2023/05/12 06:00:32;;;;;;;66.60;34.53;;;13.20;99.90;;;;;;5094162;28;20184;-80
2023/05/12 06:02:58;;;;;;;74.55;36.40;;;13.30;99.90;;;;;;5074214;28;20637;-82
2023/05/12 06:05:23;;;;;;;68.15;34.47;;;13.30;99.90;;;;;;5116082;28;20242;-81
2023/05/12 06:07:50;;;;;;;69.65;34.90;;;13.30;99.90;;;;;;5097133;28;20534;-81
2023/05/12 06:10:15;;;;;;;68.53;34.70;;;13.30;99.90;;;;;;5080569;28;20178;-81
2023/05/12 06:12:42;;;;;;;72.63;36.40;;;13.30;99.90;;;;;;5089959;28;20213;-80
2023/05/12 06:15:08;;;;;;;73.03;35.72;;;13.40;99.90;;;;;;5094566;28;20181;-80
2023/05/12 06:17:34;;;;;;;71.45;35.63;;;13.40;99.90;;;;;;5099308;28;20509;-81
2023/05/12 06:19:59;;;;;;;72.30;37.03;;;13.40;99.90;;;;;;5080507;28;20223;-80
2023/05/12 06:22:25;;;;;;;86.75;37.47;;;13.50;99.90;;;;;;5096573;28;20185;-88
2023/05/12 06:24:51;;;;;;;77.03;38.13;;;13.50;99.90;;;;;;5095570;28;20225;-81
2023/05/12 06:27:17;;;;;;;83.50;40.08;;;13.50;99.90;;;;;;5078647;28;20513;-81
2023/05/12 06:29:45;;;;;;;83.13;39.80;;;13.60;99.90;;;;;;5096524;28;20196;-81
2023/05/12 06:32:11;;;;;;;80.10;40.20;;;13.60;99.90;;;;;;5112624;28;20169;-81
2023/05/12 06:34:37;;;;;;;76.15;39.38;;;13.60;99.90;;;;;;5043318;28;20239;-81
2023/05/12 06:37:03;;;;;;;89.43;40.08;;;13.70;99.90;;;;;;5095805;28;20192;-80
2023/05/12 06:39:29;;;;;;;82.70;41.08;;;13.70;99.90;;;;;;5096152;28;20385;-80
2023/05/12 06:41:55;;;;;;;82.85;40.28;;;13.70;99.90;;;;;;5113654;28;20630;-79
2023/05/12 06:44:21;;;;;;;77.72;40.40;;;13.80;99.90;;;;;;5111920;28;20185;-78
2023/05/12 06:46:51;;;;;;;82.72;40.97;;;13.80;99.90;;;;;;5076557;28;20247;-83
2023/05/12 06:49:16;;;;;;;79.13;41.38;;;13.90;99.90;;;;;;5087562;28;20626;-79
2023/05/12 06:51:42;;;;;;;80.93;42.70;;;13.90;99.90;;;;;;5078776;28;20181;-80
2023/05/12 06:54:10;;;;;;;85.10;43.80;;;13.90;99.90;;;;;;5093900;28;20244;-80
2023/05/12 06:56:36;;;;;;;84.47;43.65;;;13.90;99.90;;;;;;5079061;28;20634;-80
2023/05/12 06:59:03;;;;;;;82.30;43.40;;;14.00;99.90;;;;;;5095647;28;20189;-79
2023/05/12 07:01:30;;;;;;;88.00;45.47;;;14.10;99.90;;;;;;5075801;28;20200;-82
2023/05/12 07:03:57;;;;;;;87.68;46.60;;;14.10;99.90;;;;;;5110320;28;20591;-79
2023/05/12 07:06:23;;;;;;;92.80;47.25;;;14.10;99.90;;;;;;5109854;28;20185;-80
2023/05/12 07:08:48;;;;;;;102.65;50.15;;;14.10;99.90;;;;;;5113632;28;20196;-79
2023/05/12 07:11:18;;;;;;;91.68;48.67;;;14.20;99.90;;;;;;5095649;28;20186;-79
2023/05/12 07:13:51;;;;;;;93.15;49.47;;;14.30;99.90;;;;;;5093022;28;20282;-80
2023/05/12 07:16:18;;;;;;;100.35;52.50;;;14.30;99.90;;;;;;5078390;28;20177;-80
2023/05/12 07:18:44;;;;;;;94.03;53.10;;;14.40;99.90;;;;;;5095600;28;20181;-83
2023/05/12 07:21:10;;;;;;;106.00;55.75;;;14.40;99.90;;;;;;5113475;28;20185;-80
2023/05/12 07:23:37;;;;;;;100.80;54.80;;;14.40;99.90;;;;;;5095435;28;20195;-80
2023/05/12 07:26:05;;;;;;;102.22;55.65;;;14.50;99.90;;;;;;5107292;28;20693;-82
2023/05/12 07:28:34;;;;;;;101.00;55.90;;;14.50;99.90;;;;;;5098245;28;20204;-79
2023/05/12 07:31:04;;;;;;;111.95;56.88;;;14.60;99.90;;;;;;5077279;28;20186;-79
2023/05/12 07:33:30;;;;;;;111.57;58.00;;;14.70;99.90;;;;;;5113430;28;20209;-79
2023/05/12 07:35:56;;;;;;;105.63;58.65;;;14.80;99.90;;;;;;5112211;28;20191;-79
2023/05/12 07:38:22;;;;;;;116.50;59.55;;;14.90;99.90;;;;;;5076470;28;20184;-80
2023/05/12 07:40:48;;;;;;;103.13;58.00;;;14.90;99.90;;;;;;5058986;28;20217;-83
2023/05/12 07:43:16;;;;;;;107.95;59.60;;;15.10;99.90;;;;;;5112674;28;20268;-80
2023/05/12 07:45:42;;;;;;;103.15;59.40;;;15.20;99.90;;;;;;5113404;28;20192;-79
2023/05/12 07:48:10;;;;;;;114.15;59.25;;;15.30;99.90;;;;;;5113040;28;20211;-80
2023/05/12 07:50:36;;;;;;;98.35;58.05;;;15.40;99.90;;;;;;5110019;28;20234;-81
2023/05/12 07:53:03;;;;;;;101.35;58.85;;;15.60;99.90;;;;;;5095102;28;20231;-79
2023/05/12 07:55:29;;;;;;;92.72;55.70;;;15.60;99.90;;;;;;5110716;28;20683;-81
2023/05/12 07:57:54;;;;;;;90.78;55.47;;;15.80;99.90;;;;;;5092155;28;20181;-80
2023/05/12 08:00:22;;;;;;;97.90;55.85;;;15.90;99.90;;;;;;5110024;28;20181;-79
2023/05/12 08:02:47;;;;;;;89.57;53.60;;;15.90;99.90;;;;;;5109306;28;20212;-78
2023/05/12 08:05:13;;;;;;;87.43;53.17;;;16.00;99.90;;;;;;5094880;28;20188;-79
2023/05/12 08:07:42;;;;;;;86.75;53.45;;;16.00;99.90;;;;;;5083696;28;20655;-79
2023/05/12 08:10:14;;;;;;;84.00;52.45;;;16.10;99.90;;;;;;5111993;28;20181;-79
2023/05/12 08:12:41;;;;;;;83.68;51.97;;;16.10;99.90;;;;;;5086800;28;20213;-79
2023/05/12 08:15:08;;;;;;;86.13;51.40;;;16.10;99.90;;;;;;5092145;28;20166;-80
2023/05/12 08:17:34;;;;;;;81.22;51.58;;;16.10;99.90;;;;;;5081765;28;20217;-80
2023/05/12 08:20:00;;;;;;;79.80;51.95;;;16.10;99.90;;;;;;5094847;28;20638;-79
2023/05/12 08:22:26;;;;;;;78.32;51.03;;;16.10;99.90;;;;;;5112150;28;20638;-79
2023/05/12 08:24:52;;;;;;;75.85;49.72;;;16.20;99.90;;;;;;5084418;28;20312;-79
2023/05/12 08:27:19;;;;;;;70.07;48.38;;;16.20;99.90;;;;;;5053851;28;20175;-79
2023/05/12 08:29:45;;;;;;;72.78;47.75;;;16.20;99.90;;;;;;5070966;28;20189;-79
2023/05/12 08:32:11;;;;;;;71.05;48.53;;;16.30;99.90;;;;;;5072051;28;20175;-79
2023/05/12 08:34:37;;;;;;;68.57;46.17;;;16.30;99.90;;;;;;5069511;28;20206;-81
2023/05/12 08:37:03;;;;;;;70.18;46.17;;;16.30;99.90;;;;;;5052238;28;20175;-81
2023/05/12 08:39:30;;;;;;;68.00;45.58;;;16.40;99.90;;;;;;5034731;28;20194;-79
2023/05/12 08:42:16;;;;;;;65.03;44.53;;;16.50;99.90;;;;;;5062137;28;20257;-80
2023/05/12 08:44:43;;;;;;;69.07;45.75;;;16.60;99.90;;;;;;5065587;28;20170;-79
2023/05/12 08:47:11;;;;;;;63.92;44.80;;;16.70;99.90;;;;;;5072315;28;20604;-81
2023/05/12 08:49:42;;;;;;;61.65;42.85;;;16.80;99.90;;;;;;5071620;28;20601;-83
2023/05/12 08:52:08;;;;;;;63.35;43.38;;;17.00;99.90;;;;;;5071581;28;20175;-79
2023/05/12 08:54:35;;;;;;;55.83;40.72;;;17.10;99.90;;;;;;5069602;28;20186;-79
2023/05/12 08:57:02;;;;;;;61.97;41.88;;;17.40;99.90;;;;;;5071885;28;20190;-80
2023/05/12 08:59:28;;;;;;;70.57;38.35;;;17.60;99.90;;;;;;5071303;28;20178;-79
2023/05/12 09:01:55;;;;;;;53.15;38.80;;;17.80;99.90;;;;;;5070330;28;20198;-81
2023/05/12 09:04:20;;;;;;;50.03;36.30;;;18.00;99.90;;;;;;5069676;28;20182;-78
2023/05/12 09:06:47;;;;;;;50.10;36.38;;;18.20;99.90;;;;;;5068651;28;20686;-80
2023/05/12 09:09:15;;;;;;;53.45;36.85;;;18.30;99.90;;;;;;5071776;28;20182;-79
2023/05/12 09:11:41;;;;;;;49.53;32.88;;;18.50;99.90;;;;;;5072060;28;20175;-79
2023/05/12 09:14:16;;;;;;;45.78;34.45;;;18.60;99.90;;;;;;5071310;28;20222;-88
2023/05/12 09:16:45;;;;;;;45.28;33.55;;;18.70;99.90;;;;;;5073424;28;20178;-79
2023/05/12 09:19:11;;;;;;;45.85;33.83;;;18.80;99.90;;;;;;5074876;28;20655;-79
2023/05/12 09:21:36;;;;;;;45.88;34.97;;;18.90;99.90;;;;;;5071617;28;20261;-80
2023/05/12 09:24:05;;;;;;;44.90;34.58;;;19.00;99.90;;;;;;5071616;28;20202;-80
2023/05/12 09:26:45;;;;;;;47.42;33.58;;;19.20;99.90;;;;;;5092904;28;20229;-80
2023/05/12 09:29:12;;;;;;;44.08;33.13;;;19.30;99.90;;;;;;5086821;28;20182;-89
2023/05/12 09:31:37;;;;;;;43.65;30.42;;;19.50;99.90;;;;;;5061078;28;20186;-82
2023/05/12 09:34:09;;;;;;;44.22;33.25;;;19.70;99.90;;;;;;5075975;28;20228;-80
2023/05/12 09:36:35;;;;;;;42.80;31.08;;;19.80;99.90;;;;;;5088350;28;20206;-82
2023/05/12 09:39:05;;;;;;;38.08;28.23;;;19.90;99.90;;;;;;5078913;28;20193;-82
2023/05/12 09:41:38;;;;;;;39.70;28.45;;;20.00;99.90;;;;;;5090497;28;20185;-80
2023/05/12 09:44:05;;;;;;;34.63;27.38;;;20.00;99.90;;;;;;5076741;28;20194;-86
2023/05/12 09:46:31;;;;;;;41.03;28.70;;;20.10;99.90;;;;;;5055956;28;20187;-83
2023/05/12 09:48:58;;;;;;;34.33;27.65;;;20.10;99.90;;;;;;5083075;28;20189;-82
2023/05/12 09:51:25;;;;;;;35.92;27.77;;;20.10;99.90;;;;;;5093069;28;20261;-84
2023/05/12 09:53:52;;;;;;;37.60;27.15;;;20.20;99.90;;;;;;5075867;28;20182;-82
2023/05/12 09:56:20;;;;;;;34.63;27.13;;;20.20;99.90;;;;;;5094495;28;20174;-82
2023/05/12 09:58:47;;;;;;;35.63;27.02;;;20.30;99.90;;;;;;5091692;28;20194;-85
2023/05/12 10:01:18;;;;;;;33.92;26.60;;;20.40;99.90;;;;;;5093094;28;20189;-82
2023/05/12 10:03:46;;;;;;;35.25;25.63;;;20.50;99.90;;;;;;5095194;28;20213;-83
2023/05/12 10:06:18;;;;;;;34.72;23.88;;;20.60;99.90;;;;;;5093599;28;20185;-83
2023/05/12 10:09:02;;;;;;;31.55;23.52;;;20.70;99.90;;;;;;5092890;28;20189;-83
2023/05/12 10:11:28;;;;;;;30.40;23.10;;;20.70;99.90;;;;;;5080813;28;20186;-82
2023/05/12 10:13:55;;;;;;;34.25;26.05;;;20.70;99.90;;;;;;5093260;28;20662;-84
2023/05/12 10:16:21;;;;;;;31.63;24.65;;;20.80;99.90;;;;;;5091408;28;20283;-82
2023/05/12 10:18:48;;;;;;;31.88;26.40;;;20.80;99.90;;;;;;5074593;28;20258;-86
2023/05/12 10:21:15;;;;;;;28.75;23.85;;;20.70;99.90;;;;;;5076244;28;20198;-82
2023/05/12 10:23:44;;;;;;;35.88;25.58;;;20.80;99.90;;;;;;5094483;28;20206;-82
2023/05/12 10:26:11;;;;;;;34.67;27.08;;;20.80;99.90;;;;;;5092697;28;20332;-82
2023/05/12 10:28:37;;;;;;;33.03;26.08;;;20.90;99.90;;;;;;5093465;28;20235;-82
2023/05/12 10:31:06;;;;;;;33.80;26.38;;;21.00;99.90;;;;;;5061545;28;20186;-82
2023/05/12 10:33:32;;;;;;;31.95;25.08;;;21.10;99.90;;;;;;5068663;28;20545;-82
2023/05/12 10:35:58;;;;;;;30.55;23.75;;;21.20;99.90;;;;;;5055021;28;20202;-81
2023/05/12 10:38:24;;;;;;;30.55;23.23;;;21.20;99.90;;;;;;5055768;28;20181;-83
2023/05/12 10:41:00;;;;;;;29.55;20.73;;;21.30;99.90;;;;;;5078377;28;20190;-82
2023/05/12 10:43:28;;;;;;;30.08;20.98;;;21.40;99.90;;;;;;5052526;28;20715;-82
2023/05/12 10:46:06;;;;;;;28.40;20.77;;;21.40;99.90;;;;;;5036071;28;20178;-81
2023/05/12 10:48:32;;;;;;;27.73;21.85;;;21.40;99.90;;;;;;5052485;28;20179;-82
2023/05/12 10:51:06;;;;;;;28.08;20.00;;;21.50;99.90;;;;;;5056040;28;20628;-84
2023/05/12 10:53:33;;;;;;;28.60;18.52;;;21.50;99.90;;;;;;5056552;28;20214;-81
2023/05/12 10:56:03;;;;;;;23.60;18.73;;;21.60;99.90;;;;;;5069642;28;20210;-82
2023/05/12 10:58:29;;;;;;;26.27;21.27;;;21.60;99.90;;;;;;5057143;28;20296;-81
2023/05/12 11:01:04;;;;;;;24.80;19.40;;;21.70;99.90;;;;;;5076851;28;20273;-84
2023/05/12 11:03:30;;;;;;;24.90;19.13;;;21.80;99.90;;;;;;5086548;28;20205;-83
2023/05/12 11:06:04;;;;;;;31.98;19.75;;;21.80;99.90;;;;;;5053809;28;20179;-80
2023/05/12 11:08:33;;;;;;;25.65;18.85;;;21.80;99.90;;;;;;5063514;28;20269;-79
2023/05/12 11:11:00;;;;;;;24.98;17.52;;;21.90;99.90;;;;;;5074260;28;20178;-80
2023/05/12 11:13:28;;;;;;;20.88;17.25;;;21.90;99.90;;;;;;5072512;28;20198;-81
2023/05/12 11:15:56;;;;;;;21.75;16.52;;;22.00;99.90;;;;;;5071787;28;20186;-84
2023/05/12 11:18:22;;;;;;;21.10;16.73;;;22.10;99.90;;;;;;5072379;28;20261;-80
2023/05/12 11:20:48;;;;;;;21.63;16.77;;;22.20;99.90;;;;;;5042001;28;20194;-79
2023/05/12 11:23:28;;;;;;;23.40;16.25;;;22.40;99.90;;;;;;5060405;28;20194;-80
2023/05/12 11:25:54;;;;;;;22.35;15.48;;;22.50;99.90;;;;;;5069396;28;20530;-80
2023/05/12 11:28:21;;;;;;;21.20;14.27;;;22.60;99.90;;;;;;5071903;28;20627;-81
2023/05/12 11:30:51;;;;;;;19.10;13.75;;;22.60;99.90;;;;;;5073648;28;20543;-80
2023/05/12 11:33:20;;;;;;;19.73;14.10;;;22.70;99.90;;;;;;5092143;28;20185;-80
2023/05/12 11:35:47;;;;;;;18.15;13.93;;;22.80;99.90;;;;;;5092278;28;20178;-81
2023/05/12 11:38:17;;;;;;;18.13;12.20;;;22.80;99.90;;;;;;5092308;28;20189;-80
2023/05/12 11:40:43;;;;;;;16.25;11.13;;;22.80;99.90;;;;;;5093074;28;20174;-80
2023/05/12 11:43:09;;;;;;;16.58;10.80;;;22.80;99.90;;;;;;5073635;28;20223;-80
2023/05/12 11:45:36;;;;;;;18.73;9.90;;;22.70;99.90;;;;;;5089391;28;20180;-82
2023/05/12 11:48:10;;;;;;;14.02;10.40;;;22.70;99.90;;;;;;5091676;28;20181;-80
2023/05/12 11:50:40;;;;;;;13.27;9.23;;;22.60;99.90;;;;;;5075174;28;20595;-80
2023/05/12 11:53:13;;;;;;;12.75;9.68;;;22.60;99.90;;;;;;5091734;28;20257;-82
2023/05/12 11:55:50;;;;;;;16.35;9.65;;;22.60;99.90;;;;;;5090769;28;20202;-80
2023/05/12 11:58:25;;;;;;;13.68;10.70;;;22.60;99.90;;;;;;5090235;28;20192;-81
2023/05/12 12:00:52;;;;;;;14.18;10.98;;;22.60;99.90;;;;;;5072522;28;20174;-81
2023/05/12 12:03:19;;;;;;;12.20;9.65;;;22.60;99.90;;;;;;5073188;28;20691;-81
2023/05/12 12:06:00;;;;;;;15.43;9.70;;;22.60;99.90;;;;;;5091406;28;20186;-82
2023/05/12 12:08:26;;;;;;;12.70;8.35;;;22.70;99.90;;;;;;5078732;28;20189;-81
2023/05/12 12:10:52;;;;;;;10.45;8.00;;;22.80;99.90;;;;;;5074945;28;20174;-80
2023/05/12 12:13:22;;;;;;;10.45;8.48;;;22.90;99.90;;;;;;5091697;28;20181;-84
2023/05/12 12:15:49;;;;;;;9.40;8.27;;;22.90;99.90;;;;;;5068581;28;20533;-83
2023/05/12 12:18:20;;;;;;;11.18;8.50;;;23.00;99.90;;;;;;5088933;28;20210;-82
2023/05/12 12:20:47;;;;;;;11.18;8.15;;;23.00;99.90;;;;;;5093247;28;20174;-82
2023/05/12 12:23:13;;;;;;;9.68;7.68;;;23.10;99.90;;;;;;5092000;28;20244;-82
2023/05/12 12:25:39;;;;;;;9.00;6.90;;;23.20;99.90;;;;;;5103589;28;20281;-83
2023/05/12 12:28:05;;;;;;;8.48;6.18;;;23.20;99.90;;;;;;5077563;28;20720;-83